Latest Weather Observations for Bundaberg

IDQ60801

Issued at 3:02 pm EST Tuesday 31 March 2015 (issued every 30 minutes, with the page automatically refreshed every 10 minutes)

About weather observations | Map of weather stations | Latest weather observations for QLD | Other Formats
Station Details ID: 039128 Name: BUNDABERG AERO Lat: -24.91 Lon: 152.32 Height: 30.82 m
Data from the previous 72 hours. | See also: Recent months at Bundaberg
Date/Time
EST
Temp
°C
App
Temp
°C
Dew
Point
Rel
Hum
%
Delta-T
°C
Wind Press
QNH
hPa
Press
MSL
hPa
Rain
since 9 am
mm
Dir
 
Spd
km/h
Gust
km/h
Spd
kts
Gust
kts
31/03:00pm 27.2 25.5 17.1 54 6.3 ESE 22 32 12 17 1018.0 1017.8 0.0
31/02:30pm 28.3 26.8 17.8 53 6.7 ESE 22 30 12 16 1018.0 1017.8 0.0
31/02:00pm 27.2 25.5 16.2 51 6.8 ESE 20 32 11 17 1018.4 1018.2 0.0
31/01:30pm 27.7 26.4 16.9 51 6.7 ESE 19 28 10 15 1019.0 1018.8 0.0
31/01:00pm 28.2 26.3 15.8 47 7.6 ESE 20 30 11 16 1019.1 1018.9 0.0
31/12:30pm 28.8 26.5 16.7 48 7.6 ESE 24 35 13 19 1019.5 1019.3 0.0
31/12:00pm 26.9 23.7 15.3 49 7.0 ESE 26 32 14 17 1019.9 1019.7 0.0
31/11:30am 27.1 24.6 17.0 54 6.3 ESE 26 35 14 19 1020.5 1020.3 0.0
31/11:00am 26.8 24.6 17.0 55 6.1 ESE 24 30 13 16 1020.7 1020.5 0.0
31/10:30am 26.5 25.6 18.1 60 5.3 ESE 20 30 11 16 1021.3 1021.2 0.0
31/10:00am 25.6 24.8 18.0 63 4.8 ESE 19 28 10 15 1021.4 1021.3 0.0
31/09:30am 25.0 24.8 18.4 66 4.2 SE 17 22 9 12 1021.2 1021.1 0.0
31/09:00am 24.4 24.3 18.8 71 3.6 SE 17 22 9 12 1021.1 1021.0 0.4
31/08:30am 23.4 23.9 18.3 73 3.2 SSE 13 20 7 11 1021.2 1021.1 0.4
31/08:00am 22.0 22.7 18.0 78 2.5 SSE 11 19 6 10 1021.2 1021.1 0.4
31/07:30am 21.0 21.8 18.2 84 1.7 S 11 15 6 8 1021.0 1020.9 0.4
31/07:00am 20.3 21.4 18.1 87 1.4 S 9 15 5 8 1020.4 1020.2 0.4
31/06:30am 20.1 20.5 18.2 89 1.2 S 13 17 7 9 1020.1 1019.9 0.4
31/06:00am 20.0 21.2 18.3 90 1.1 SSE 9 11 5 6 1019.9 1019.7 0.4
31/05:30am 19.9 20.8 18.4 91 0.9 SSE 11 17 6 9 1020.1 1019.9 0.2
31/05:00am 20.3 21.2 19.3 94 0.6 SE 13 17 7 9 1019.8 1019.6 0.2
31/04:33am 20.0 20.6 18.5 91 0.9 SE 13 19 7 10 1019.8 1019.6 0.0
31/04:30am 20.0 20.2 18.5 91 0.9 SE 15 19 8 10 1019.8 1019.6 0.0
31/04:22am 20.2 20.8 18.5 90 1.1 SE 13 19 7 10 1019.8 1019.6 0.0
31/04:00am 20.2 21.1 17.6 85 1.6 E 9 11 5 6 1020.0 1019.8 0.0
31/03:30am 20.2 20.8 17.8 86 1.5 S 11 17 6 9 1019.7 1019.5 0.0
31/03:00am 20.2 21.2 17.8 86 1.5 SSE 9 11 5 6 1019.7 1019.5 0.0
31/02:30am 20.5 21.0 17.5 83 1.8 SSE 11 17 6 9 1020.0 1019.8 0.0
31/02:00am 19.9 20.4 17.5 86 1.5 S 11 17 6 9 1020.3 1020.1 0.0
31/01:30am 19.7 20.1 17.3 86 1.5 S 11 17 6 9 1020.4 1020.2 0.0
31/01:00am 19.7 19.7 17.3 86 1.5 S 13 17 7 9 1020.6 1020.4 0.0
31/12:30am 19.9 20.7 17.3 85 1.6 SSE 9 13 5 7 1020.8 1020.7 0.0
 
Date/Time
EST
Temp
°C
App
Temp
°C
Dew
Point
Rel
Hum
%
Delta-T
°C
Wind Press
QNH
hPa
Press
MSL
hPa
Rain
since 9 am
mm
Dir
 
Spd
km/h
Gust
km/h
Spd
kts
Gust
kts
30/11:30pm 20.1 20.1 17.3 84 1.7 SSE 13 19 7 10 1021.1 1021.0 0.0
30/11:00pm 20.0 20.1 17.4 85 1.6 SE 13 15 7 8 1021.2 1021.1 0.0
30/10:30pm 20.6 21.4 17.2 81 2.1 SSE 9 15 5 8 1021.7 1021.6 0.0
30/10:00pm 20.8 21.6 17.2 80 2.2 SSE 9 15 5 8 1022.0 1021.9 0.0
30/09:30pm 21.1 21.1 17.3 79 2.3 SSE 13 17 7 9 1021.9 1021.8 0.0
30/09:00pm 21.2 21.6 17.2 78 2.4 SSE 11 17 6 9 1022.1 1022.0 0.0
30/08:30pm 21.5 21.6 17.5 78 2.5 SSE 13 22 7 12 1021.9 1021.8 0.0
30/08:00pm 21.8 22.4 17.8 78 2.5 SSE 11 15 6 8 1021.6 1021.5 0.0
30/07:30pm 22.3 22.7 18.1 77 2.6 SE 13 17 7 9 1021.1 1021.0 0.0
30/07:00pm 22.7 23.0 17.8 74 3.0 ESE 13 19 7 10 1020.9 1020.8 0.0
30/06:30pm 23.8 23.8 18.0 70 3.6 SE 15 19 8 10 1020.6 1020.4 0.0
30/06:00pm 24.5 24.1 18.0 67 4.1 ESE 17 19 9 10 1020.3 1020.1 0.0
30/05:30pm 25.6 24.5 17.8 62 4.9 ESE 20 28 11 15 1019.9 1019.7 0.0
30/05:00pm 26.5 24.7 17.8 58 5.5 ESE 24 33 13 18 1019.7 1019.5 0.0
30/04:30pm 27.1 25.3 17.8 56 5.9 E 24 33 13 18 1019.5 1019.3 0.0
30/04:00pm 28.1 26.6 17.6 53 6.6 ESE 22 35 12 19 1019.3 1019.1 0.0
30/03:30pm 28.0 25.1 16.0 48 7.4 E 26 33 14 18 1019.2 1019.0 0.0
30/03:00pm 28.3 25.8 16.2 47 7.5 E 24 37 13 20 1018.9 1018.7 0.0
30/02:30pm 27.4 25.1 16.7 52 6.7 E 24 33 13 18 1019.1 1018.9 0.0
30/02:00pm 29.0 27.7 18.1 51 6.9 E 22 33 12 18 1019.3 1019.1 0.0
30/01:30pm 28.8 26.9 17.7 51 7.0 SE 24 32 13 17 1019.8 1019.6 0.0
30/01:00pm 28.7 27.5 17.6 51 7.0 E 20 30 11 16 1020.2 1020.0 0.0
30/12:30pm 28.1 26.6 16.7 50 7.1 E 20 30 11 16 1020.5 1020.3 0.0
30/12:00pm 28.8 27.1 17.3 49 7.2 ESE 22 33 12 18 1021.1 1021.0 0.0
30/11:30am 27.8 26.6 17.6 53 6.4 ESE 20 32 11 17 1021.7 1021.6 0.0
30/11:00am 27.8 26.6 17.0 51 6.7 ESE 19 30 10 16 1022.1 1022.0 0.0
30/10:30am 28.4 27.2 18.5 55 6.3 E 22 30 12 16 1022.5 1022.4 0.0
30/10:00am 28.0 26.7 18.1 55 6.3 ESE 22 32 12 17 1022.5 1022.4 0.0
30/09:30am 26.4 24.7 17.2 57 5.7 ESE 22 30 12 16 1022.7 1022.6 0.0
30/09:00am 25.9 25.5 18.8 65 4.5 SE 19 26 10 14 1022.6 1022.5 0.0
30/08:30am 24.7 24.5 18.6 69 3.9 SE 17 24 9 13 1022.5 1022.4 0.0
30/08:00am 22.9 23.4 18.4 76 2.8 SSE 13 19 7 10 1022.3 1022.2 0.0
30/07:30am 21.1 21.6 18.3 84 1.7 S 13 17 7 9 1021.9 1021.8 0.0
30/07:00am 19.6 19.8 17.7 89 1.2 S 13 17 7 9 1021.5 1021.4 0.0
30/06:30am 18.4 18.7 17.1 92 0.8 S 11 15 6 8 1021.0 1020.9 0.0
30/06:00am 18.3 18.2 17.0 92 0.8 S 13 19 7 10 1020.9 1020.8 0.0
30/05:30am 18.5 18.8 17.0 91 0.9 S 11 17 6 9 1020.8 1020.7 0.0
30/05:00am 18.5 18.4 17.0 91 0.9 S 13 15 7 8 1020.6 1020.4 0.0
30/04:30am 18.4 19.0 16.9 91 0.9 S 9 13 5 7 1020.2 1020.0 0.0
30/04:00am 18.6 18.9 17.1 91 0.9 S 11 15 6 8 1020.0 1019.8 0.0
30/03:30am 18.7 19.1 17.2 91 0.9 S 11 13 6 7 1020.0 1019.8 0.0
30/03:00am 19.0 19.0 17.3 90 1.0 S 13 17 7 9 1020.3 1020.1 0.0
30/02:30am 19.0 19.3 17.1 89 1.2 SSE 11 17 6 9 1020.3 1020.1 0.0
30/02:00am 19.1 19.4 17.1 88 1.2 SSE 11 17 6 9 1020.5 1020.3 0.0
30/01:30am 19.3 19.6 17.1 87 1.3 SSE 11 17 6 9 1021.0 1020.9 0.0
30/01:00am 19.3 19.2 16.9 86 1.4 S 13 15 7 8 1021.4 1021.3 0.0
30/12:30am 19.5 19.5 17.1 86 1.5 S 13 17 7 9 1021.6 1021.5 0.0
30/12:00am 19.8 20.5 17.0 84 1.7 SSE 9 13 5 7 1021.6 1021.5 0.0
 
Date/Time
EST
Temp
°C
App
Temp
°C
Dew
Point
Rel
Hum
%
Delta-T
°C
Wind Press
QNH
hPa
Press
MSL
hPa
Rain
since 9 am
mm
Dir
 
Spd
km/h
Gust
km/h
Spd
kts
Gust
kts
29/11:30pm 20.2 20.1 17.0 82 1.9 S 13 17 7 9 1021.7 1021.6 0.0
29/11:00pm 20.4 19.9 16.8 80 2.2 S 15 20 8 11 1021.8 1021.7 0.0
29/10:30pm 20.7 21.0 16.9 79 2.3 SSE 11 17 6 9 1021.6 1021.5 0.0
29/10:00pm 21.0 20.9 17.0 78 2.4 SSE 13 17 7 9 1021.6 1021.5 0.0
29/09:30pm 21.0 21.3 17.0 78 2.4 SSE 11 15 6 8 1021.8 1021.7 0.0
29/09:00pm 20.7 21.0 17.1 80 2.2 SE 11 13 6 7 1022.0 1021.9 0.0
29/08:30pm 21.1 21.4 17.1 78 2.4 SE 11 13 6 7 1022.0 1021.9 0.0
29/08:00pm 21.8 22.3 16.5 72 3.2 SSE 9 15 5 8 1021.8 1021.7 0.0
29/07:30pm 22.2 22.5 17.1 73 3.1 SSE 11 15 6 8 1021.5 1021.4 0.0
29/07:00pm 22.6 22.9 17.1 71 3.4 SE 11 15 6 8 1021.4 1021.3 0.0
29/06:30pm 23.6 23.0 16.6 65 4.3 ESE 15 19 8 10 1021.1 1021.0 0.0
29/06:00pm 24.3 23.3 16.6 62 4.7 ESE 17 20 9 11 1020.6 1020.4 0.0
29/05:30pm 25.3 24.1 17.0 60 5.1 ESE 19 24 10 13 1020.3 1020.1 0.0
29/05:00pm 26.1 24.3 16.9 57 5.7 ESE 22 28 12 15 1020.1 1019.9 0.0
29/04:30pm 26.5 24.3 17.0 56 5.9 ESE 24 32 13 17 1019.9 1019.7 0.0
29/04:00pm 26.9 24.6 17.7 57 5.8 ESE 26 33 14 18 1019.9 1019.7 0.0
29/03:30pm 27.1 25.1 17.3 55 6.1 ESE 24 32 13 17 1019.7 1019.5 0.0
29/03:00pm 27.2 24.2 16.8 53 6.5 ESE 28 35 15 19 1019.8 1019.6 0.0
29/02:30pm 27.6 24.5 15.6 48 7.3 ESE 26 33 14 18 1019.9 1019.7 0.0
29/02:00pm 27.9 24.4 15.5 46 7.6 ESE 28 37 15 20 1020.0 1019.8 0.0
29/01:30pm 28.4 25.0 15.7 46 7.8 ESE 28 37 15 20 1020.2 1020.0 0.0
29/01:00pm 28.8 25.8 16.7 48 7.5 ESE 28 35 15 19 1020.6 1020.4 0.0
29/12:30pm 28.3 25.7 17.8 53 6.7 ESE 28 39 15 21 1020.9 1020.8 0.0
29/12:00pm 27.9 25.1 17.4 52 6.6 ESE 28 39 15 21 1021.2 1021.1 0.0
29/11:30am 27.5 24.6 17.1 53 6.5 ESE 28 37 15 20 1021.5 1021.4 0.0
29/11:00am 27.1 24.0 17.6 56 6.0 ESE 30 39 16 21 1021.8 1021.7 0.0
29/10:30am 27.1 24.9 17.8 56 5.9 ESE 26 33 14 18 1022.0 1021.9 0.0
29/10:00am 26.7 24.1 17.7 57 5.7 ESE 28 35 15 19 1022.0 1021.9 0.0
29/09:30am 26.9 24.1 18.2 59 5.5 ESE 30 41 16 22 1022.1 1022.0 0.0
29/09:00am 26.5 25.5 19.6 66 4.5 ESE 24 30 13 16 1022.0 1021.9 1.2
29/08:30am 25.0 25.4 20.7 77 2.8 SE 19 24 10 13 1021.7 1021.6 1.2
29/08:00am 24.5 25.2 20.4 78 2.7 SSE 17 24 9 13 1021.2 1021.1 1.2
29/07:30am 23.3 24.6 20.8 86 1.6 SSE 15 20 8 11 1020.8 1020.7 1.2
29/07:00am 22.4 24.1 20.9 91 1.0 SSE 13 19 7 10 1020.2 1020.0 1.2
29/06:30am 22.2 23.5 20.8 92 0.9 SSE 15 22 8 12 1019.9 1019.7 1.2
29/06:00am 22.2 24.4 21.2 94 0.7 S 11 20 6 11 1019.6 1019.4 1.2
29/05:30am 22.3 25.1 21.5 95 0.5 S 9 15 5 8 1019.1 1018.9 1.0
29/05:00am 22.4 24.4 21.6 95 0.5 SSE 13 17 7 9 1018.7 1018.5 1.0
29/04:30am 22.5 24.6 21.7 95 0.5 S 13 19 7 10 1018.3 1018.1 1.0
29/04:00am 22.7 24.3 21.5 93 0.8 SSE 15 22 8 12 1018.3 1018.1 0.0
29/03:30am 22.4 24.3 21.4 94 0.7 SSE 13 19 7 10 1018.3 1018.1 0.0
29/03:00am 22.2 23.9 21.0 93 0.8 S 13 19 7 10 1018.1 1017.9 0.0
29/02:30am 22.4 25.0 21.2 93 0.8 SSE 9 13 5 7 1018.4 1018.2 0.0
29/02:00am 22.6 24.9 21.4 93 0.8 S 11 15 6 8 1018.7 1018.5 0.0
29/01:30am 22.4 24.6 21.2 93 0.8 S 11 15 6 8 1018.8 1018.6 0.0
29/01:00am 22.2 24.7 21.0 93 0.8 S 9 13 5 7 1018.8 1018.6 0.0
29/12:30am 22.2 24.2 20.8 92 0.9 S 11 15 6 8 1019.0 1018.8 0.0
29/12:00am 22.3 24.7 20.9 92 0.9 SSE 9 11 5 6 1019.2 1019.0 0.0
 
Date/Time
EST
Temp
°C
App
Temp
°C
Dew
Point
Rel
Hum
%
Delta-T
°C
Wind Press
QNH
hPa
Press
MSL
hPa
Rain
since 9 am
mm
Dir
 
Spd
km/h
Gust
km/h
Spd
kts
Gust
kts
28/11:30pm 22.6 24.7 20.9 90 1.1 SSE 11 15 6 8 1019.3 1019.1 0.0
28/11:00pm 22.7 24.8 21.0 90 1.1 SSE 11 13 6 7 1019.6 1019.4 0.0
28/10:30pm 22.9 24.7 21.2 90 1.1 SSE 13 17 7 9 1019.8 1019.6 0.0
28/10:00pm 23.2 25.9 21.3 89 1.2 SSE 9 11 5 6 1019.9 1019.7 0.0
28/09:30pm 23.4 26.1 21.3 88 1.4 SE 9 11 5 6 1019.9 1019.7 0.0
28/09:00pm 24.1 27.0 21.8 87 1.5 ESE 9 13 5 7 1019.8 1019.6 0.0
28/08:30pm 24.0 25.2 22.1 89 1.3 E 19 24 10 13 1019.7 1019.5 0.0
28/08:00pm 24.5 27.8 21.8 85 1.8 ESE 7 9 4 5 1019.2 1019.0 0.0
28/07:30pm 24.6 27.3 21.3 82 2.2 E 9 13 5 7 1018.8 1018.6 0.0
28/07:00pm 24.8 27.5 21.3 81 2.3 E 9 11 5 6 1018.3 1018.1 0.0
28/06:30pm 25.3 27.9 21.2 78 2.7 E 9 11 5 6 1018.0 1017.8 0.0
28/06:00pm 25.9 27.6 20.9 74 3.3 E 13 17 7 9 1017.5 1017.3 0.0
28/05:30pm 26.8 27.6 20.6 69 4.1 E 17 22 9 12 1017.3 1017.1 0.0
28/05:00pm 27.9 28.5 20.2 63 5.0 E 17 20 9 11 1017.1 1016.9 0.0
28/04:30pm 27.9 28.2 19.7 61 5.3 E 17 22 9 12 1017.1 1016.9 0.0
28/04:00pm 28.6 29.6 20.3 60 5.5 E 15 22 8 12 1016.9 1016.7 0.0
28/03:30pm 28.2 28.3 20.0 61 5.4 E 19 22 10 12 1017.0 1016.8 0.0

Other Formats:

Comma delimited format used in spreadsheet applications
http://www.bom.gov.au/fwo/IDQ60801/IDQ60801.94387.axf

JavaScript Object Notation format (JSON) in row-major order
http://www.bom.gov.au/fwo/IDQ60801/IDQ60801.94387.json